Time;durP1;ratioP1;P1;durP2;ratioP2;P2;SDS_P1;SDS_P2;PMS_P1;PMS_P2;Temp;Humidity;BMP_temperature;BMP_pressure;BME280_temperature;BME280_humidity;BME280_pressure;Samples;Min_cycle;Max_cycle;Signal;HPM_P1;HPM_P2
2021/11/07 00:04:41;;;;;;;24.87;6.43;;;13.30;99.90;;;;;;5027293;28;20206;-82
2021/11/07 00:07:20;;;;;;;25.40;7.13;;;13.40;99.90;;;;;;5029529;28;20264;-82
2021/11/07 00:09:57;;;;;;;20.70;6.20;;;13.40;99.90;;;;;;5029841;28;20234;-81
2021/11/07 00:12:28;;;;;;;23.90;6.57;;;13.40;99.90;;;;;;5028312;28;20499;-83
2021/11/07 00:14:55;;;;;;;22.73;7.17;;;13.40;99.90;;;;;;5028617;28;20213;-82
2021/11/07 00:17:26;;;;;;;25.40;7.23;;;13.50;99.90;;;;;;5028813;28;20206;-80
2021/11/07 00:19:56;;;;;;;21.63;5.77;;;13.40;99.90;;;;;;5029458;28;20198;-83
2021/11/07 00:22:29;;;;;;;21.70;7.30;;;13.50;99.90;;;;;;5029379;28;20908;-80
2021/11/07 00:25:02;;;;;;;21.33;6.30;;;13.50;99.90;;;;;;5033924;28;20198;-81
2021/11/07 00:27:34;;;;;;;19.43;6.10;;;13.50;99.90;;;;;;5047669;28;20880;-83
2021/11/07 00:30:12;;;;;;;25.77;7.53;;;13.50;99.90;;;;;;5048640;28;20202;-82
2021/11/07 00:32:46;;;;;;;24.77;7.93;;;13.50;99.90;;;;;;5028267;28;20306;-80
2021/11/07 00:37:59;;;;;;;26.33;6.23;;;13.50;99.90;;;;;;5021426;28;20253;-80
2021/11/07 00:40:32;;;;;;;25.67;6.47;;;13.50;99.90;;;;;;5027917;28;20214;-82
2021/11/07 00:43:04;;;;;;;20.23;5.77;;;13.50;99.90;;;;;;5028159;28;20206;-82
2021/11/07 00:45:39;;;;;;;22.43;6.60;;;13.50;99.90;;;;;;5028254;28;20226;-81
2021/11/07 00:51:03;;;;;;;22.20;6.43;;;13.50;99.90;;;;;;5025093;28;20226;-83
2021/11/07 00:53:50;;;;;;;21.80;5.97;;;13.60;99.90;;;;;;5028152;28;20211;-81
2021/11/07 00:56:22;;;;;;;24.90;6.90;;;13.50;99.90;;;;;;5028115;28;20316;-80
2021/11/07 00:59:03;;;;;;;24.10;6.53;;;13.60;99.90;;;;;;5029279;28;20761;-82
2021/11/07 01:01:35;;;;;;;16.20;6.60;;;13.60;99.90;;;;;;5028109;28;20207;-82
2021/11/07 01:04:03;;;;;;;20.80;5.60;;;13.60;99.90;;;;;;5028385;28;20206;-83
2021/11/07 01:06:31;;;;;;;22.63;6.13;;;13.60;99.90;;;;;;5028474;28;20921;-82
2021/11/07 01:08:58;;;;;;;19.97;6.40;;;13.60;99.90;;;;;;5028560;28;20610;-80
2021/11/07 01:11:25;;;;;;;16.23;4.90;;;13.60;99.90;;;;;;5028606;28;20502;-82
2021/11/07 01:13:53;;;;;;;10.40;3.87;;;13.60;99.90;;;;;;5027949;28;20202;-80
2021/11/07 01:16:20;;;;;;;23.13;5.27;;;13.50;99.90;;;;;;5028593;28;20199;-80
2021/11/07 01:18:47;;;;;;;16.23;4.60;;;13.50;99.90;;;;;;5029588;28;20209;-81
2021/11/07 01:21:15;;;;;;;15.90;4.80;;;13.50;99.90;;;;;;5029281;28;20220;-82
2021/11/07 01:23:45;;;;;;;16.13;4.93;;;13.50;99.90;;;;;;5028833;28;20217;-82
2021/11/07 01:26:16;;;;;;;23.43;6.73;;;13.50;99.90;;;;;;5044016;28;20305;-80
2021/11/07 01:28:48;;;;;;;15.80;4.13;;;13.50;99.90;;;;;;5039849;28;20202;-82
2021/11/07 01:31:17;;;;;;;20.73;4.57;;;13.50;99.90;;;;;;5026805;28;20199;-81
2021/11/07 01:33:45;;;;;;;14.73;3.90;;;13.50;99.90;;;;;;5028544;28;20607;-82
2021/11/07 01:36:25;;;;;;;27.70;5.40;;;13.50;99.90;;;;;;5027856;28;20294;-80
2021/11/07 01:38:55;;;;;;;19.67;4.80;;;13.40;99.90;;;;;;5028361;28;20276;-82
2021/11/07 01:41:27;;;;;;;17.40;4.53;;;13.40;99.90;;;;;;5028044;28;20685;-82
2021/11/07 01:43:58;;;;;;;20.63;5.70;;;13.40;99.90;;;;;;5027965;28;20201;-81
2021/11/07 01:46:29;;;;;;;26.30;5.90;;;13.30;99.90;;;;;;5028341;28;20589;-82
2021/11/07 01:49:01;;;;;;;20.50;3.80;;;13.20;99.90;;;;;;5027631;28;20218;-83
2021/11/07 01:51:30;;;;;;;16.40;4.40;;;13.20;99.90;;;;;;5027288;28;20210;-84
2021/11/07 01:54:07;;;;;;;17.47;4.07;;;13.20;99.90;;;;;;5028281;28;20293;-82
2021/11/07 01:56:34;;;;;;;18.00;4.03;;;13.20;99.90;;;;;;5028510;28;20221;-84
2021/11/07 01:59:01;;;;;;;29.93;5.90;;;13.20;99.90;;;;;;5027861;28;20201;-80
2021/11/07 02:01:30;;;;;;;17.80;4.70;;;13.30;99.90;;;;;;5027988;28;20203;-81
2021/11/07 02:03:57;;;;;;;18.93;4.93;;;13.30;99.90;;;;;;5029166;28;20203;-81
2021/11/07 02:06:23;;;;;;;25.87;5.30;;;13.20;99.90;;;;;;5027716;28;20237;-82
2021/11/07 02:08:50;;;;;;;19.50;4.87;;;13.20;99.90;;;;;;5029113;28;20602;-81
2021/11/07 02:11:18;;;;;;;17.33;4.27;;;13.10;99.90;;;;;;5027556;28;20210;-82
2021/11/07 02:13:46;;;;;;;18.33;4.40;;;13.10;99.90;;;;;;5029458;28;20234;-81
2021/11/07 02:16:13;;;;;;;23.03;5.00;;;13.10;99.90;;;;;;5028573;28;20206;-80
2021/11/07 02:18:41;;;;;;;22.03;5.50;;;13.10;99.90;;;;;;5028805;28;20956;-82
2021/11/07 02:21:09;;;;;;;16.07;4.80;;;13.10;99.90;;;;;;5028311;28;20213;-83
2021/11/07 02:23:36;;;;;;;18.57;4.50;;;13.10;99.90;;;;;;5028373;28;20198;-82
2021/11/07 02:26:05;;;;;;;21.20;5.50;;;13.10;99.90;;;;;;5028108;28;20226;-81
2021/11/07 02:28:34;;;;;;;21.70;4.73;;;13.10;99.90;;;;;;5029025;28;20206;-82
2021/11/07 02:31:01;;;;;;;22.50;4.53;;;13.10;99.90;;;;;;5029769;28;20202;-84
2021/11/07 02:33:28;;;;;;;21.07;4.60;;;13.00;99.90;;;;;;5028931;28;20199;-83
2021/11/07 02:35:55;;;;;;;18.73;4.83;;;13.00;99.90;;;;;;5029230;28;20206;-81
2021/11/07 02:38:24;;;;;;;21.97;4.20;;;13.00;99.90;;;;;;5027668;28;20210;-81
2021/11/07 02:40:50;;;;;;;21.27;4.40;;;12.90;99.90;;;;;;5029391;28;20218;-83
2021/11/07 02:43:17;;;;;;;15.20;4.13;;;12.90;99.90;;;;;;5026530;28;20206;-84
2021/11/07 02:45:44;;;;;;;15.00;3.57;;;12.90;99.90;;;;;;5028571;28;20210;-81
2021/11/07 02:48:11;;;;;;;17.53;5.13;;;12.80;99.90;;;;;;5027395;28;20955;-83
2021/11/07 02:50:38;;;;;;;14.30;3.63;;;12.80;99.90;;;;;;5027591;28;20715;-83
2021/11/07 02:53:05;;;;;;;21.93;4.07;;;12.80;99.90;;;;;;5027957;28;20198;-83
2021/11/07 02:55:33;;;;;;;24.90;4.87;;;12.80;99.90;;;;;;5027201;28;20234;-81
2021/11/07 02:58:00;;;;;;;17.80;4.77;;;12.80;99.90;;;;;;5027163;28;20198;-79
2021/11/07 03:00:30;;;;;;;17.87;3.97;;;12.70;99.90;;;;;;5026841;28;20242;-83
2021/11/07 03:02:57;;;;;;;19.47;4.27;;;12.60;99.90;;;;;;5028253;28;20602;-81
2021/11/07 03:05:25;;;;;;;16.67;4.03;;;12.60;99.90;;;;;;5027803;28;20205;-83
2021/11/07 03:07:51;;;;;;;17.00;3.50;;;12.60;99.90;;;;;;5027674;28;20227;-82
2021/11/07 03:10:21;;;;;;;16.80;3.73;;;12.60;99.90;;;;;;5027331;28;20206;-83
2021/11/07 03:13:04;;;;;;;18.07;4.27;;;12.60;99.90;;;;;;5026620;28;20214;-80
2021/11/07 03:15:31;;;;;;;18.80;4.37;;;12.60;99.90;;;;;;5027598;28;20217;-81
2021/11/07 03:17:58;;;;;;;17.27;3.77;;;12.60;99.90;;;;;;5027170;28;20226;-82
2021/11/07 03:20:25;;;;;;;18.60;4.40;;;12.60;99.90;;;;;;5026854;28;20217;-82
2021/11/07 03:22:53;;;;;;;18.73;4.20;;;12.60;99.90;;;;;;5026650;28;20198;-81
2021/11/07 03:25:21;;;;;;;16.43;4.00;;;12.60;99.90;;;;;;5035166;28;20197;-82
2021/11/07 03:27:49;;;;;;;16.13;3.40;;;12.60;99.90;;;;;;5046959;28;20303;-84
2021/11/07 03:30:25;;;;;;;14.13;4.20;;;12.50;99.90;;;;;;5035215;28;20218;-81
2021/11/07 03:32:56;;;;;;;17.27;3.83;;;12.60;99.90;;;;;;5026966;28;20313;-82
2021/11/07 03:35:23;;;;;;;19.63;5.13;;;12.50;99.90;;;;;;5030261;28;20194;-84
2021/11/07 03:37:56;;;;;;;19.03;4.00;;;12.50;99.90;;;;;;5046241;28;20221;-79
2021/11/07 03:40:25;;;;;;;18.63;4.23;;;12.50;99.90;;;;;;5046077;28;20206;-83
2021/11/07 03:42:54;;;;;;;19.77;4.97;;;12.40;99.90;;;;;;5046544;28;20194;-82
2021/11/07 03:45:22;;;;;;;21.00;4.17;;;12.40;99.90;;;;;;5046384;28;20260;-81
2021/11/07 03:47:50;;;;;;;17.70;4.10;;;12.40;99.90;;;;;;5042938;28;20497;-84
2021/11/07 03:50:17;;;;;;;19.40;4.97;;;12.30;99.90;;;;;;5044991;28;20300;-82
2021/11/07 03:52:44;;;;;;;18.57;4.33;;;12.30;99.90;;;;;;5045973;28;20202;-82
2021/11/07 03:55:11;;;;;;;14.13;3.80;;;12.30;99.90;;;;;;5044047;28;20889;-81
2021/11/07 03:57:38;;;;;;;17.47;3.77;;;12.30;99.90;;;;;;5026952;28;20206;-85
2021/11/07 04:00:09;;;;;;;22.70;4.80;;;12.20;99.90;;;;;;5026827;28;20198;-81
2021/11/07 04:02:35;;;;;;;11.73;3.87;;;12.20;99.90;;;;;;5026818;28;20214;-82
2021/11/07 04:05:02;;;;;;;19.50;4.13;;;12.20;99.90;;;;;;5025736;28;20209;-80
2021/11/07 04:07:29;;;;;;;15.87;3.37;;;12.20;99.90;;;;;;5025358;28;20231;-82
2021/11/07 04:09:56;;;;;;;16.40;4.03;;;12.20;99.90;;;;;;5025602;28;20219;-81
2021/11/07 04:12:23;;;;;;;18.17;5.23;;;12.10;99.90;;;;;;5025592;28;20829;-82
2021/11/07 04:14:50;;;;;;;16.60;4.10;;;12.20;99.90;;;;;;5025488;28;20199;-82
2021/11/07 04:17:18;;;;;;;16.80;3.93;;;12.20;99.90;;;;;;5025309;28;20209;-79
2021/11/07 04:19:45;;;;;;;25.10;5.30;;;12.20;99.90;;;;;;5026015;28;20277;-82
2021/11/07 04:22:13;;;;;;;21.83;4.63;;;12.20;99.90;;;;;;5025402;28;20231;-81
2021/11/07 04:24:40;;;;;;;17.73;4.00;;;12.20;99.90;;;;;;5029659;28;20298;-79
2021/11/07 04:27:08;;;;;;;19.50;4.70;;;12.20;99.90;;;;;;5048330;28;20307;-82
2021/11/07 04:29:35;;;;;;;18.10;4.17;;;12.10;99.90;;;;;;5048546;28;20499;-81
2021/11/07 04:32:02;;;;;;;17.57;4.07;;;12.10;99.90;;;;;;5048518;28;20233;-81
2021/11/07 04:34:31;;;;;;;24.50;4.73;;;12.10;99.90;;;;;;5049166;28;20201;-82
2021/11/07 04:36:58;;;;;;;23.43;4.03;;;12.10;99.90;;;;;;5040414;28;20206;-82
2021/11/07 04:39:26;;;;;;;18.07;4.47;;;12.10;99.90;;;;;;5029354;28;20210;-80
2021/11/07 04:41:53;;;;;;;16.30;3.67;;;12.20;99.90;;;;;;5029599;28;20242;-82
2021/11/07 04:44:20;;;;;;;27.97;5.07;;;12.20;99.90;;;;;;5028401;28;20198;-80
2021/11/07 04:46:50;;;;;;;20.90;4.33;;;12.10;99.90;;;;;;5048874;28;20236;-81
2021/11/07 04:49:17;;;;;;;23.07;4.83;;;12.10;99.90;;;;;;5038066;28;20533;-80
2021/11/07 04:51:45;;;;;;;15.43;4.47;;;12.10;99.90;;;;;;5029692;28;20206;-81
2021/11/07 04:54:13;;;;;;;15.40;4.30;;;12.10;99.90;;;;;;5028035;28;20305;-81
2021/11/07 04:56:40;;;;;;;25.63;5.30;;;12.10;99.90;;;;;;5028675;28;20595;-79
2021/11/07 04:59:09;;;;;;;16.33;4.00;;;12.10;99.90;;;;;;5034312;28;20212;-82
2021/11/07 05:01:37;;;;;;;17.63;4.00;;;12.20;99.90;;;;;;5029911;28;20215;-79
2021/11/07 05:04:05;;;;;;;13.67;3.63;;;12.20;99.90;;;;;;5028057;28;20256;-82
2021/11/07 05:06:31;;;;;;;15.60;4.07;;;12.20;99.90;;;;;;5027741;28;20206;-81
2021/11/07 05:09:00;;;;;;;18.17;4.03;;;12.20;99.90;;;;;;5027642;28;20207;-81
2021/11/07 05:11:27;;;;;;;20.53;3.87;;;12.20;99.90;;;;;;5028928;28;20260;-81
2021/11/07 05:13:54;;;;;;;22.77;4.80;;;12.20;99.90;;;;;;5029241;28;20203;-81
2021/11/07 05:16:21;;;;;;;23.10;4.43;;;12.20;99.90;;;;;;5027349;28;20214;-81
2021/11/07 05:18:47;;;;;;;17.10;4.10;;;12.20;99.90;;;;;;5028681;28;20206;-80
2021/11/07 05:21:15;;;;;;;17.73;4.70;;;12.20;99.90;;;;;;5027273;28;20214;-81
2021/11/07 05:23:42;;;;;;;18.33;4.07;;;12.20;99.90;;;;;;5027840;28;20267;-79
2021/11/07 05:26:10;;;;;;;17.70;3.93;;;12.20;99.90;;;;;;5028141;28;20203;-80
2021/11/07 05:28:37;;;;;;;21.43;4.33;;;12.20;99.90;;;;;;5046633;28;20226;-81
2021/11/07 05:31:04;;;;;;;23.33;4.67;;;12.20;99.90;;;;;;5048083;28;20202;-81
2021/11/07 05:33:31;;;;;;;15.93;4.73;;;12.20;99.90;;;;;;5030609;28;20225;-80
2021/11/07 05:35:58;;;;;;;16.70;4.23;;;12.20;99.90;;;;;;5027006;28;20190;-79
2021/11/07 05:38:24;;;;;;;14.90;3.93;;;12.20;99.90;;;;;;5027026;28;20603;-78
2021/11/07 05:40:52;;;;;;;17.90;4.83;;;12.20;99.90;;;;;;5027475;28;20210;-81
2021/11/07 05:43:21;;;;;;;19.93;4.37;;;12.20;99.90;;;;;;5026948;28;20195;-81
2021/11/07 05:45:47;;;;;;;18.70;4.00;;;12.20;99.90;;;;;;5028009;28;20198;-83
2021/11/07 05:48:14;;;;;;;16.93;4.27;;;12.20;99.90;;;;;;5027100;28;20846;-81
2021/11/07 05:50:41;;;;;;;17.53;3.80;;;12.20;99.90;;;;;;5026873;28;20203;-81
2021/11/07 05:53:08;;;;;;;17.97;4.13;;;12.20;99.90;;;;;;5027565;28;20226;-82
2021/11/07 05:55:36;;;;;;;17.27;4.20;;;12.20;99.90;;;;;;5027268;28;20238;-82
2021/11/07 05:58:03;;;;;;;20.53;4.30;;;12.10;99.90;;;;;;5025969;28;20661;-80
2021/11/07 06:00:31;;;;;;;14.67;4.23;;;12.10;99.90;;;;;;5027104;28;20206;-80
2021/11/07 06:03:00;;;;;;;18.80;4.63;;;12.10;99.90;;;;;;5027418;28;20677;-81
2021/11/07 06:05:27;;;;;;;17.20;4.00;;;12.00;99.90;;;;;;5026505;28;20213;-80
2021/11/07 06:07:55;;;;;;;15.57;3.43;;;12.00;99.90;;;;;;5027012;28;20227;-81
2021/11/07 06:10:22;;;;;;;18.40;4.27;;;12.00;99.90;;;;;;5026108;28;20610;-81
2021/11/07 06:12:48;;;;;;;16.60;3.77;;;12.00;99.90;;;;;;5027352;28;20205;-81
2021/11/07 06:15:15;;;;;;;21.40;4.17;;;12.00;99.90;;;;;;5043590;28;20213;-82
2021/11/07 06:17:44;;;;;;;22.93;4.20;;;12.00;99.90;;;;;;5046217;28;20202;-81
2021/11/07 06:20:11;;;;;;;22.20;5.20;;;12.00;99.90;;;;;;5046690;28;20209;-82
2021/11/07 06:22:38;;;;;;;18.57;5.80;;;12.00;99.90;;;;;;5046345;28;20210;-80
2021/11/07 06:25:05;;;;;;;18.87;4.37;;;12.00;99.90;;;;;;5035517;28;20822;-82
2021/11/07 06:27:33;;;;;;;18.67;3.27;;;12.00;99.90;;;;;;5047246;28;20248;-81
2021/11/07 06:30:01;;;;;;;16.60;3.97;;;12.00;99.90;;;;;;5040350;28;20203;-79
2021/11/07 06:32:28;;;;;;;18.43;5.00;;;11.90;99.90;;;;;;5027219;28;20304;-82
2021/11/07 06:34:56;;;;;;;23.83;5.43;;;11.90;99.90;;;;;;5027657;28;20203;-79
2021/11/07 06:37:23;;;;;;;23.87;4.20;;;11.90;99.90;;;;;;5026400;28;20214;-82
2021/11/07 06:39:50;;;;;;;18.47;4.97;;;11.90;99.90;;;;;;5026140;28;20233;-80
2021/11/07 06:42:17;;;;;;;17.10;5.37;;;11.90;99.90;;;;;;5026221;28;20209;-80
2021/11/07 06:44:44;;;;;;;17.07;4.07;;;11.90;99.90;;;;;;5027158;28;20191;-80
2021/11/07 06:47:12;;;;;;;13.50;3.87;;;11.90;99.90;;;;;;5025996;28;20214;-80
2021/11/07 06:49:39;;;;;;;13.20;3.93;;;11.90;99.90;;;;;;5026736;28;20207;-80
2021/11/07 06:52:07;;;;;;;24.83;4.93;;;11.90;99.90;;;;;;5027143;28;20214;-78
2021/11/07 06:54:35;;;;;;;17.90;3.70;;;11.90;99.90;;;;;;5025945;28;20265;-81
2021/11/07 06:57:02;;;;;;;18.13;3.57;;;11.90;99.90;;;;;;5037520;28;20210;-82
2021/11/07 06:59:29;;;;;;;15.00;4.43;;;11.90;99.90;;;;;;5043412;28;20279;-80
2021/11/07 07:01:56;;;;;;;20.57;4.17;;;11.90;99.90;;;;;;5046390;28;20201;-80
2021/11/07 07:04:23;;;;;;;22.67;4.90;;;11.90;99.90;;;;;;5037899;28;20218;-79
2021/11/07 07:06:50;;;;;;;20.90;4.77;;;11.90;99.90;;;;;;5026350;28;20198;-82
2021/11/07 07:09:23;;;;;;;16.70;4.50;;;11.90;99.90;;;;;;5026210;28;20226;-80
2021/11/07 07:11:53;;;;;;;13.70;3.60;;;11.90;99.90;;;;;;5032147;28;20291;-78
2021/11/07 07:14:22;;;;;;;19.83;3.60;;;11.90;99.90;;;;;;5045874;28;20201;-80
2021/11/07 07:16:57;;;;;;;19.57;4.23;;;11.90;99.90;;;;;;5046319;28;20231;-79
2021/11/07 07:19:42;;;;;;;17.70;3.63;;;11.90;99.90;;;;;;5044923;28;21083;-80
2021/11/07 07:22:20;;;;;;;16.00;3.90;;;11.90;99.90;;;;;;5045121;28;20209;-80
2021/11/07 07:28:01;;;;;;;19.20;5.30;;;12.00;99.90;;;;;;5044801;28;20225;-80
2021/11/07 07:30:42;;;;;;;21.03;4.50;;;12.00;99.90;;;;;;5038084;28;20214;-80
2021/11/07 07:33:26;;;;;;;20.23;4.40;;;12.00;99.90;;;;;;5026023;28;20206;-83
2021/11/07 07:35:56;;;;;;;15.87;4.40;;;12.00;99.90;;;;;;5026348;28;20784;-82
2021/11/07 07:38:23;;;;;;;16.77;4.30;;;12.00;99.90;;;;;;5026815;28;20590;-79
2021/11/07 07:40:52;;;;;;;14.10;3.80;;;12.00;99.90;;;;;;5025988;28;20237;-81
2021/11/07 07:43:19;;;;;;;16.23;3.77;;;12.00;99.90;;;;;;5026129;28;20778;-81
2021/11/07 07:45:46;;;;;;;17.70;4.20;;;12.00;99.90;;;;;;5027256;28;20213;-84
2021/11/07 07:48:13;;;;;;;16.63;3.83;;;12.00;99.90;;;;;;5026734;28;20232;-80
2021/11/07 07:50:41;;;;;;;18.87;4.13;;;12.00;99.90;;;;;;5027189;28;20210;-82
2021/11/07 07:53:08;;;;;;;15.63;3.83;;;12.00;99.90;;;;;;5026360;28;20214;-80
2021/11/07 07:55:36;;;;;;;18.40;3.57;;;12.00;99.90;;;;;;5026753;28;20665;-83
2021/11/07 07:58:04;;;;;;;16.63;4.47;;;12.00;99.90;;;;;;5026939;28;20199;-80
2021/11/07 08:00:31;;;;;;;21.33;4.63;;;12.00;99.90;;;;;;5029006;28;20206;-83
2021/11/07 08:02:58;;;;;;;18.27;4.33;;;12.10;99.90;;;;;;5029439;28;20594;-81
2021/11/07 08:05:25;;;;;;;19.90;3.80;;;12.20;99.90;;;;;;5030362;28;20217;-82
2021/11/07 08:07:52;;;;;;;20.80;4.53;;;12.20;99.90;;;;;;5029502;28;20225;-83
2021/11/07 08:10:20;;;;;;;14.30;4.03;;;12.20;99.90;;;;;;4992196;28;20394;-83
2021/11/07 08:12:47;;;;;;;17.90;3.73;;;12.20;99.90;;;;;;5030243;28;20205;-83
2021/11/07 08:15:15;;;;;;;15.23;3.57;;;12.20;99.90;;;;;;5030356;28;20215;-82
2021/11/07 08:17:43;;;;;;;21.57;5.00;;;12.20;99.90;;;;;;5030808;28;20206;-80
2021/11/07 08:20:12;;;;;;;26.17;5.13;;;12.20;99.90;;;;;;5030624;28;20499;-78
2021/11/07 08:22:41;;;;;;;23.27;4.37;;;12.20;99.90;;;;;;5030514;28;20289;-77
2021/11/07 08:25:11;;;;;;;19.03;4.17;;;12.10;99.90;;;;;;5023226;28;20557;-78
2021/11/07 08:27:40;;;;;;;19.30;4.70;;;12.10;99.90;;;;;;5030678;28;20265;-81
2021/11/07 08:30:09;;;;;;;23.07;4.40;;;12.10;99.90;;;;;;5031426;28;20237;-84
2021/11/07 08:32:37;;;;;;;16.93;4.03;;;12.20;99.90;;;;;;5029786;28;20225;-77
2021/11/07 08:35:06;;;;;;;22.80;4.87;;;12.20;99.90;;;;;;5030674;28;20208;-82
2021/11/07 08:37:36;;;;;;;17.87;4.03;;;12.30;99.90;;;;;;5030279;28;20520;-83
2021/11/07 08:40:07;;;;;;;14.67;3.83;;;12.30;99.90;;;;;;5029796;28;20218;-85
2021/11/07 08:42:37;;;;;;;16.80;4.00;;;12.30;99.90;;;;;;5029941;28;20195;-81
2021/11/07 09:01:39;;;;;;;15.97;3.27;;;12.20;99.90;;;;;;5030684;28;20292;-79
2021/11/07 09:04:21;;;;;;;17.90;5.23;;;12.20;99.90;;;;;;5030765;28;20214;-78
2021/11/07 09:07:13;;;;;;;20.03;5.53;;;12.20;99.90;;;;;;5030286;28;20348;-82
2021/11/07 09:09:42;;;;;;;14.87;4.07;;;12.20;99.90;;;;;;5030001;28;20342;-80
2021/11/07 09:12:10;;;;;;;20.80;4.83;;;12.10;99.90;;;;;;5031220;28;20615;-84
2021/11/07 09:14:38;;;;;;;17.63;3.77;;;12.20;99.90;;;;;;5030870;28;20237;-78
2021/11/07 09:17:08;;;;;;;21.53;4.03;;;12.30;99.90;;;;;;5031964;28;20195;-82
2021/11/07 09:19:38;;;;;;;19.90;5.30;;;12.30;99.90;;;;;;5038447;28;20274;-85
2021/11/07 09:22:09;;;;;;;18.67;4.10;;;12.30;99.90;;;;;;5038837;28;20926;-80
2021/11/07 09:24:39;;;;;;;19.57;5.37;;;12.30;99.90;;;;;;5041236;28;20191;-80
2021/11/07 09:27:14;;;;;;;21.30;6.03;;;12.20;99.90;;;;;;5043404;28;20195;-82
2021/11/07 09:29:52;;;;;;;20.10;5.43;;;12.20;99.90;;;;;;5039390;28;20211;-80
2021/11/07 09:32:30;;;;;;;18.47;4.87;;;12.10;99.90;;;;;;5032093;28;20256;-79
2021/11/07 09:35:11;;;;;;;21.77;4.57;;;12.10;99.90;;;;;;5029640;28;20221;-81
2021/11/07 09:37:44;;;;;;;18.17;3.60;;;12.10;99.90;;;;;;5028557;28;20198;-79
2021/11/07 09:40:13;;;;;;;14.27;3.43;;;12.10;99.90;;;;;;5028511;28;20217;-79
2021/11/07 09:42:56;;;;;;;21.87;4.60;;;12.10;99.90;;;;;;5028116;28;20211;-79
2021/11/07 09:45:28;;;;;;;20.50;4.60;;;12.00;99.90;;;;;;5028608;28;20206;-77
2021/11/07 09:47:59;;;;;;;14.83;4.10;;;12.10;99.90;;;;;;5028509;28;20244;-76
2021/11/07 09:50:27;;;;;;;18.30;4.47;;;12.10;99.90;;;;;;5028942;28;20210;-85
2021/11/07 09:52:55;;;;;;;20.30;6.03;;;12.10;99.90;;;;;;5029588;28;20237;-82
2021/11/07 09:55:25;;;;;;;21.07;5.27;;;12.20;99.90;;;;;;5028418;28;20666;-86
2021/11/07 09:57:54;;;;;;;17.83;3.57;;;12.20;99.90;;;;;;5029242;28;20618;-78
2021/11/07 10:00:25;;;;;;;22.40;4.97;;;12.20;99.90;;;;;;5029229;28;20214;-84
2021/11/07 10:02:52;;;;;;;22.20;5.17;;;12.20;99.90;;;;;;5029177;28;20901;-82
2021/11/07 10:05:20;;;;;;;20.57;5.00;;;12.20;99.90;;;;;;5028329;28;20202;-85
2021/11/07 10:07:56;;;;;;;25.20;5.57;;;12.40;99.90;;;;;;5029148;28;20202;-78
2021/11/07 10:10:24;;;;;;;19.73;3.57;;;12.50;99.90;;;;;;5029571;28;20516;-87
2021/11/07 10:12:54;;;;;;;18.23;3.70;;;12.50;99.90;;;;;;5030262;28;20242;-86
2021/11/07 10:15:30;;;;;;;19.60;4.53;;;12.50;99.90;;;;;;5029499;28;21053;-85
2021/11/07 10:18:03;;;;;;;16.10;3.80;;;12.40;99.90;;;;;;5040428;28;20296;-81
2021/11/07 10:20:34;;;;;;;19.93;3.90;;;12.30;99.90;;;;;;5048094;28;20237;-86
2021/11/07 10:23:10;;;;;;;24.27;4.93;;;12.30;99.90;;;;;;5046649;28;20293;-80
2021/11/07 10:25:41;;;;;;;22.13;5.23;;;12.30;99.90;;;;;;5045214;28;20198;-76
2021/11/07 10:28:17;;;;;;;19.93;5.23;;;12.30;99.90;;;;;;5028029;28;20199;-82
2021/11/07 10:30:47;;;;;;;15.83;4.20;;;12.40;99.90;;;;;;5028581;28;20202;-84
2021/11/07 10:33:26;;;;;;;19.00;4.40;;;12.40;99.90;;;;;;5028228;28;20293;-80
2021/11/07 10:36:37;;;;;;;25.00;5.10;;;12.30;99.90;;;;;;5028559;28;20528;-79
2021/11/07 10:45:10;;;;;;;18.07;5.40;;;12.40;99.90;;;;;;5027994;28;20260;-79
2021/11/07 10:48:00;;;;;;;20.97;3.93;;;12.50;99.90;;;;;;5028660;28;20222;-83
2021/11/07 10:53:16;;;;;;;22.03;4.40;;;12.70;99.90;;;;;;5028131;28;20214;-85
2021/11/07 10:55:49;;;;;;;17.63;4.50;;;12.70;99.90;;;;;;5029463;28;20238;-78
2021/11/07 10:58:16;;;;;;;22.20;4.60;;;12.70;99.90;;;;;;5028761;28;20609;-82
2021/11/07 11:00:46;;;;;;;25.43;5.70;;;12.70;99.90;;;;;;5027555;28;20206;-80
2021/11/07 11:03:16;;;;;;;26.93;4.93;;;12.70;99.90;;;;;;5028730;28;20920;-81
2021/11/07 11:05:48;;;;;;;22.10;4.97;;;12.60;99.90;;;;;;5028724;28;20610;-86
2021/11/07 11:08:19;;;;;;;15.23;4.43;;;12.60;99.90;;;;;;5036056;22;20234;-86
2021/11/07 11:11:05;;;;;;;30.10;4.80;;;12.50;99.90;;;;;;5027236;28;20194;-86
2021/11/07 11:13:42;;;;;;;28.17;5.07;;;12.50;99.90;;;;;;5008874;28;20218;-86
2021/11/07 11:22:14;;;;;;;23.60;6.40;;;12.50;99.90;;;;;;4990934;28;20253;-80
2021/11/07 11:25:01;;;;;;;26.33;5.20;;;12.60;99.90;;;;;;5008205;28;20227;-81
2021/11/07 11:27:48;;;;;;;22.30;5.77;;;12.70;99.90;;;;;;5024488;28;20241;-85
2021/11/07 11:30:35;;;;;;;16.83;4.20;;;12.70;99.90;;;;;;5026910;28;20215;-86
2021/11/07 11:33:08;;;;;;;27.73;5.90;;;12.70;99.90;;;;;;5007630;28;20203;-77
2021/11/07 11:35:39;;;;;;;20.73;5.00;;;12.70;99.90;;;;;;5013024;28;20895;-84
2021/11/07 11:38:12;;;;;;;20.07;5.60;;;12.60;99.90;;;;;;5013919;28;21041;-88
2021/11/07 11:40:54;;;;;;;20.23;5.27;;;12.60;99.90;;;;;;5013032;28;20849;-78
2021/11/07 11:43:27;;;;;;;26.80;5.77;;;12.70;99.90;;;;;;5022966;28;20521;-83
2021/11/07 11:45:58;;;;;;;19.80;4.90;;;12.70;99.90;;;;;;5034823;28;20236;-85
2021/11/07 11:51:39;;;;;;;21.67;4.33;;;12.70;99.90;;;;;;5012185;28;20210;-86
2021/11/07 11:57:21;;;;;;;25.13;6.57;;;12.80;99.90;;;;;;5002502;28;20211;-81
2021/11/07 12:00:00;;;;;;;24.20;5.13;;;12.80;99.90;;;;;;5012370;28;20249;-78
2021/11/07 12:02:32;;;;;;;27.20;5.03;;;12.70;99.90;;;;;;5010354;28;20203;-88
2021/11/07 12:05:07;;;;;;;18.10;4.80;;;12.70;99.90;;;;;;5012429;28;20244;-84
2021/11/07 12:07:38;;;;;;;19.83;4.70;;;12.60;99.90;;;;;;5010657;28;20638;-89
2021/11/07 12:10:31;;;;;;;24.20;4.73;;;12.60;99.90;;;;;;5011309;28;20233;-80
2021/11/07 12:13:01;;;;;;;21.47;5.10;;;12.50;99.90;;;;;;5011456;28;20611;-88
2021/11/07 12:15:47;;;;;;;20.10;4.63;;;12.60;99.90;;;;;;5011927;28;20215;-77
2021/11/07 12:18:14;;;;;;;21.90;4.67;;;12.60;99.90;;;;;;5011344;28;20281;-80
2021/11/07 12:20:43;;;;;;;19.90;4.60;;;12.60;99.90;;;;;;5013002;28;20291;-87
2021/11/07 12:23:22;;;;;;;28.33;6.40;;;12.70;99.90;;;;;;5012027;28;20258;-88
2021/11/07 12:25:50;;;;;;;33.20;5.20;;;12.70;99.90;;;;;;5024263;28;20206;-87
2021/11/07 12:28:18;;;;;;;20.07;4.70;;;12.70;99.90;;;;;;5031428;28;20214;-79
2021/11/07 12:30:47;;;;;;;23.07;5.13;;;12.70;99.90;;;;;;5031410;28;20336;-88
2021/11/07 12:33:16;;;;;;;26.53;5.87;;;12.70;99.90;;;;;;5019774;28;20215;-88
2021/11/07 12:35:52;;;;;;;15.80;4.37;;;12.70;99.90;;;;;;5012805;28;20242;-84
2021/11/07 12:41:19;;;;;;;19.47;4.77;;;12.70;99.90;;;;;;5010504;28;20241;-88
2021/11/07 12:43:48;;;;;;;24.60;6.23;;;12.80;99.90;;;;;;5010479;28;20195;-84
2021/11/07 12:46:34;;;;;;;21.70;5.87;;;12.80;99.90;;;;;;5018371;28;20654;-78
2021/11/07 12:49:03;;;;;;;26.57;6.20;;;12.80;99.90;;;;;;5029988;28;20309;-80
2021/11/07 12:51:39;;;;;;;26.73;6.00;;;12.70;99.90;;;;;;5021108;28;20214;-84
2021/11/07 12:54:15;;;;;;;23.73;5.23;;;12.70;99.90;;;;;;5009421;28;20203;-79
2021/11/07 12:56:52;;;;;;;24.90;5.77;;;12.60;99.90;;;;;;5010498;28;20544;-79
2021/11/07 12:59:22;;;;;;;26.50;5.70;;;12.60;99.90;;;;;;5009295;28;20580;-88
2021/11/07 13:02:06;;;;;;;27.37;5.43;;;12.60;99.90;;;;;;5010153;28;20214;-80
2021/11/07 13:04:40;;;;;;;13.87;3.40;;;12.50;99.90;;;;;;5011281;28;20199;-86
2021/11/07 13:07:07;;;;;;;12.10;3.20;;;12.30;99.90;;;;;;5011081;28;20231;-85
2021/11/07 13:09:39;;;;;;;18.00;3.57;;;12.20;99.90;;;;;;5010013;28;20235;-83
2021/11/07 13:12:13;;;;;;;20.23;4.93;;;12.10;99.90;;;;;;5010289;28;20218;-83
2021/11/07 13:14:55;;;;;;;24.13;5.33;;;12.10;99.90;;;;;;5009987;28;20419;-86
2021/11/07 13:20:37;;;;;;;23.90;4.97;;;11.90;99.90;;;;;;5005133;28;20269;-84
2021/11/07 13:23:12;;;;;;;24.37;6.10;;;11.90;99.90;;;;;;5009949;28;20749;-85
2021/11/07 13:25:48;;;;;;;20.93;4.70;;;11.90;99.90;;;;;;5019134;28;20626;-80
2021/11/07 13:28:23;;;;;;;18.60;4.37;;;12.00;99.90;;;;;;5009147;28;20257;-81
2021/11/07 13:31:04;;;;;;;20.30;4.17;;;11.90;99.90;;;;;;5008481;28;20231;-85
2021/11/07 13:33:33;;;;;;;20.30;3.50;;;11.80;99.90;;;;;;5008538;28;20209;-87
2021/11/07 13:36:00;;;;;;;16.90;4.00;;;11.80;99.90;;;;;;5010149;28;20207;-88
2021/11/07 13:38:30;;;;;;;17.67;4.97;;;11.70;99.90;;;;;;5009431;28;20211;-85
2021/11/07 13:40:57;;;;;;;16.40;3.77;;;11.70;99.90;;;;;;5008385;28;20199;-79
2021/11/07 13:43:28;;;;;;;16.30;4.23;;;11.70;99.90;;;;;;5007034;28;20204;-85
2021/11/07 13:45:56;;;;;;;28.60;5.07;;;11.70;99.90;;;;;;5009976;28;20226;-85
2021/11/07 13:48:29;;;;;;;20.53;5.40;;;11.70;99.90;;;;;;5010632;28;20513;-87